Time;durP1;ratioP1;P1;durP2;ratioP2;P2;SDS_P1;SDS_P2;PMS_P1;PMS_P2;Temp;Humidity;BMP_temperature;BMP_pressure;BME280_temperature;BME280_humidity;BME280_pressure;Samples;Min_cycle;Max_cycle;Signal;HPM_P1;HPM_P2
2022/05/05 00:01:38;;;;;;;3.37;3.07;;;16.10;82.70;;;16.72;52.54;98822.69;4968037;28;123918;-94
2022/05/05 00:04:04;;;;;;;3.40;3.10;;;16.10;82.80;;;16.70;52.86;98813.84;4968055;28;115396;-93
2022/05/05 00:06:32;;;;;;;2.87;2.57;;;16.20;83.00;;;16.72;52.76;98816.31;4983511;28;115266;-95
2022/05/05 00:09:37;;;;;;;3.67;3.37;;;16.10;83.10;;;16.70;52.96;98815.84;4979106;28;123418;-94
2022/05/05 00:14:53;;;;;;;3.47;3.17;;;16.10;83.30;;;16.67;53.10;98814.56;4958481;28;114491;-96
2022/05/05 00:17:20;;;;;;;3.97;3.57;;;16.10;83.40;;;16.65;53.05;98811.31;4972013;28;113411;-94
2022/05/05 00:19:46;;;;;;;3.57;3.17;;;16.00;83.40;;;16.66;52.97;98818.53;4971993;28;123910;-94
2022/05/05 00:22:14;;;;;;;6.80;3.83;;;16.00;83.50;;;16.64;53.25;98812.47;4970085;28;123858;-94
2022/05/05 00:24:41;;;;;;;3.73;3.30;;;16.00;83.70;;;16.62;53.49;98811.22;4957467;28;114252;-94
2022/05/05 00:27:09;;;;;;;4.30;3.57;;;16.00;83.80;;;16.58;53.29;98816.69;4969943;28;113861;-94
2022/05/05 00:29:36;;;;;;;4.63;4.13;;;16.00;83.90;;;16.55;53.74;98812.63;4962056;28;124152;-94
2022/05/05 00:32:03;;;;;;;4.70;3.80;;;15.90;84.10;;;16.51;53.59;98816.47;4970629;28;122910;-95
2022/05/05 00:34:49;;;;;;;4.03;3.53;;;15.90;84.20;;;16.47;53.55;98809.94;4989717;28;113168;-95
2022/05/05 00:37:16;;;;;;;4.20;3.77;;;15.90;84.30;;;16.45;53.75;98807.53;4972187;28;112500;-93
2022/05/05 00:39:43;;;;;;;4.10;3.70;;;15.90;84.50;;;16.47;53.76;98815.53;4971333;28;124391;-95
2022/05/05 00:42:12;;;;;;;4.03;3.63;;;15.90;84.70;;;16.48;53.88;98811.59;4955714;28;122682;-94
2022/05/05 00:44:38;;;;;;;4.17;3.80;;;15.90;84.70;;;16.47;53.90;98810.78;4983730;28;113876;-95
2022/05/05 00:47:05;;;;;;;4.27;3.87;;;15.90;84.90;;;16.47;53.94;98804.38;4984374;28;114095;-94
2022/05/05 00:49:31;;;;;;;3.90;3.50;;;15.90;85.00;;;16.47;54.25;98805.22;4972455;28;124605;-96
2022/05/05 00:51:59;;;;;;;4.20;3.80;;;15.80;85.00;;;16.47;54.18;98807.16;4973558;28;123728;-94
2022/05/05 00:54:27;;;;;;;4.83;4.33;;;15.90;85.20;;;16.48;54.27;98811.59;4987447;28;114289;-96
2022/05/05 00:56:54;;;;;;;4.10;3.20;;;15.80;85.20;;;16.47;54.48;98805.22;4976019;28;114171;-96
2022/05/05 00:59:23;;;;;;;3.60;3.30;;;15.90;86.10;;;16.47;54.27;98809.94;4970104;28;123338;-95
2022/05/05 01:01:52;;;;;;;4.80;4.00;;;15.80;85.40;;;16.46;54.51;98802.75;4975037;28;123178;-96
2022/05/05 01:04:19;;;;;;;3.90;3.50;;;15.80;85.40;;;16.44;54.01;98816.22;4974327;28;114435;-95
2022/05/05 01:06:46;;;;;;;4.10;3.70;;;15.80;85.50;;;16.43;54.37;98809.03;4978860;28;113794;-95
2022/05/05 01:09:12;;;;;;;4.20;3.80;;;15.80;85.60;;;16.42;54.28;98807.44;4971758;28;124741;-96
2022/05/05 01:11:39;;;;;;;4.17;3.77;;;15.80;85.60;;;16.41;54.41;98798.22;4968640;28;123060;-95
2022/05/05 01:14:06;;;;;;;4.43;4.03;;;15.80;85.70;;;16.42;54.52;98807.44;4985745;28;113480;-95
2022/05/05 01:16:33;;;;;;;4.70;4.13;;;15.80;85.80;;;16.41;54.58;98805.78;4962562;28;113365;-94
2022/05/05 01:19:00;;;;;;;3.93;3.57;;;15.80;85.90;;;16.39;54.66;98805.31;4972901;28;123591;-94
2022/05/05 01:21:27;;;;;;;4.40;3.80;;;15.80;86.00;;;16.37;54.69;98814.06;4969836;28;123659;-94
2022/05/05 01:23:53;;;;;;;3.80;3.43;;;15.80;86.00;;;16.38;54.57;98818.44;4986533;28;113444;-96
2022/05/05 01:29:09;;;;;;;3.53;3.10;;;15.80;86.20;;;16.38;54.63;98814.84;4974657;28;124619;-95
2022/05/05 01:31:35;;;;;;;4.33;3.90;;;15.80;86.30;;;16.37;55.00;98810.47;4990340;28;123735;-94
2022/05/05 01:34:02;;;;;;;4.70;3.60;;;15.70;86.20;;;16.37;54.84;98818.81;4973547;28;113231;-94
2022/05/05 01:36:28;;;;;;;4.07;3.67;;;15.70;86.30;;;16.35;54.67;98817.19;4959982;28;113942;-91
2022/05/05 01:38:56;;;;;;;4.10;3.70;;;15.70;86.30;;;16.36;54.78;98820.78;4975262;28;125369;-94
2022/05/05 01:41:22;;;;;;;3.80;3.50;;;15.80;86.50;;;16.37;54.64;98827.19;4973597;28;123056;-93
2022/05/05 01:43:49;;;;;;;4.00;3.70;;;15.70;86.50;;;16.38;54.75;98831.59;4969332;28;114460;-94
2022/05/05 01:46:15;;;;;;;3.97;3.30;;;15.70;86.50;;;16.37;54.81;98829.97;4991730;28;115556;-94
2022/05/05 01:48:42;;;;;;;4.03;3.37;;;15.70;86.50;;;16.37;54.57;98827.19;4973487;28;123647;-94
2022/05/05 01:51:09;;;;;;;3.53;3.23;;;15.70;86.60;;;16.37;54.75;98827.19;4970469;28;124256;-94
2022/05/05 01:53:36;;;;;;;5.10;4.30;;;15.70;86.60;;;16.37;54.76;98816.03;4963228;28;113293;-95
2022/05/05 01:56:11;;;;;;;4.00;3.60;;;15.70;86.70;;;16.37;55.03;98828.00;4983996;28;112971;-93
2022/05/05 01:58:42;;;;;;;4.30;3.87;;;15.70;86.70;;;16.36;55.13;98820.78;4975947;28;122416;-94
2022/05/05 02:01:11;;;;;;;4.57;3.03;;;15.70;86.70;;;16.33;54.93;98822.31;4973675;28;123739;-96
2022/05/05 02:03:38;;;;;;;3.90;3.60;;;15.70;86.80;;;16.34;55.03;98818.34;4974157;28;114562;-94
2022/05/05 02:06:05;;;;;;;4.20;3.80;;;15.70;86.90;;;16.34;54.91;98818.34;4977117;28;112968;-94
2022/05/05 02:08:36;;;;;;;4.43;3.53;;;15.70;86.90;;;16.37;55.01;98816.03;4972088;28;123307;-96
2022/05/05 02:11:03;;;;;;;3.90;3.60;;;15.70;87.00;;;16.37;54.98;98821.59;4974885;28;123033;-96
2022/05/05 02:13:31;;;;;;;4.63;3.23;;;15.70;87.00;;;16.36;55.18;98815.19;4973534;28;114423;-95
2022/05/05 02:15:58;;;;;;;3.73;3.33;;;15.70;87.10;;;16.36;54.86;98815.19;4987785;28;113931;-96
2022/05/05 02:18:26;;;;;;;4.03;3.73;;;15.70;87.10;;;16.34;55.20;98817.53;4973802;28;124112;-94
2022/05/05 02:20:52;;;;;;;4.23;3.83;;;15.70;87.20;;;16.34;55.06;98817.53;4974586;28;122614;-95
2022/05/05 02:23:38;;;;;;;3.80;3.50;;;15.70;87.30;;;16.33;54.94;98822.31;4972384;28;114330;-95
2022/05/05 02:26:05;;;;;;;4.20;3.80;;;15.70;87.30;;;16.32;55.00;98819.88;4976738;28;113047;-96
2022/05/05 02:28:32;;;;;;;4.20;3.80;;;15.70;87.30;;;16.31;55.37;98824.63;4974535;28;124449;-96
2022/05/05 02:30:59;;;;;;;3.60;3.30;;;15.70;87.40;;;16.31;55.31;98819.06;4971536;28;124326;-94
2022/05/05 02:33:27;;;;;;;4.03;3.63;;;15.70;87.40;;;16.30;55.12;98814.63;4973786;28;113623;-95
2022/05/05 02:38:44;;;;;;;3.70;3.40;;;15.70;87.40;;;16.29;55.38;98815.00;4977645;28;124171;-96
2022/05/05 02:41:13;;;;;;;3.77;3.40;;;15.60;87.30;;;16.28;55.08;98818.91;4976891;28;123082;-96
2022/05/05 02:43:40;;;;;;;3.90;3.17;;;15.60;87.30;;;16.28;55.17;98819.75;4976403;28;113373;-96
2022/05/05 02:46:08;;;;;;;4.00;3.37;;;15.60;87.30;;;16.28;55.27;98824.50;4973849;28;114262;-94
2022/05/05 02:48:36;;;;;;;3.70;3.40;;;15.60;87.30;;;16.27;54.95;98829.25;4974366;28;123679;-94
2022/05/05 02:51:03;;;;;;;3.50;3.20;;;15.60;87.30;;;16.27;54.99;98828.47;4988975;28;123784;-94
2022/05/05 02:56:16;;;;;;;3.60;3.30;;;15.60;87.20;;;16.23;55.08;98833.94;4976960;28;114757;-94
2022/05/05 02:58:43;;;;;;;3.60;3.30;;;15.60;87.20;;;16.22;55.06;98831.47;4984776;28;124224;-93
2022/05/05 03:01:09;;;;;;;3.60;3.30;;;15.60;87.20;;;16.19;55.01;98827.41;4960332;28;124268;-96
2022/05/05 03:03:36;;;;;;;4.67;3.70;;;15.60;87.20;;;16.18;55.22;98825.81;4986232;28;113694;-94
2022/05/05 03:06:03;;;;;;;3.40;3.10;;;15.60;87.20;;;16.16;55.02;98830.91;4986708;28;114345;-94
2022/05/05 03:08:29;;;;;;;4.97;3.10;;;15.60;87.20;;;16.14;55.34;98824.84;4985394;28;124771;-95
2022/05/05 03:10:57;;;;;;;4.07;3.67;;;15.50;87.10;;;16.11;55.13;98822.78;4971169;28;123828;-96
2022/05/05 03:14:03;;;;;;;4.00;3.57;;;15.50;87.10;;;16.07;55.17;98825.47;4971693;28;114236;-94
2022/05/05 03:16:30;;;;;;;4.60;4.20;;;15.50;87.20;;;16.05;55.48;98821.38;4963645;28;113179;-94
2022/05/05 03:19:55;;;;;;;4.70;4.20;;;15.40;87.30;;;16.00;55.39;98825.22;4963899;28;123329;-93
2022/05/05 03:22:22;;;;;;;4.00;3.60;;;15.50;87.50;;;15.97;55.37;98825.91;4959640;28;124163;-94
2022/05/05 03:24:48;;;;;;;5.27;4.77;;;15.40;87.60;;;15.96;55.75;98831.81;4976319;28;115873;-95
2022/05/05 03:27:15;;;;;;;5.40;4.90;;;15.40;87.70;;;15.94;55.87;98826.63;4982553;28;113613;-95
2022/05/05 03:29:42;;;;;;;4.67;4.27;;;15.40;87.90;;;15.94;55.88;98832.19;4978264;28;123399;-94
2022/05/05 03:32:09;;;;;;;5.63;5.03;;;15.40;88.00;;;15.93;55.71;98836.13;4990405;28;122846;-95
2022/05/05 03:34:36;;;;;;;7.90;5.03;;;15.30;88.00;;;15.90;55.93;98840.44;4987535;28;114858;-95
2022/05/05 03:37:03;;;;;;;6.90;5.60;;;15.30;88.10;;;15.90;55.86;98826.50;5005167;28;113029;-94
2022/05/05 03:39:30;;;;;;;5.00;4.60;;;15.30;88.20;;;15.90;56.10;98832.06;4970612;28;123475;-96
2022/05/05 03:41:56;;;;;;;5.20;4.40;;;15.30;88.30;;;15.89;56.10;98830.44;4970287;28;123833;-94
2022/05/05 03:44:23;;;;;;;6.43;4.70;;;15.30;88.40;;;15.90;56.18;98845.16;4968283;28;115272;-95
2022/05/05 03:46:49;;;;;;;8.90;4.87;;;15.30;89.20;;;15.87;56.04;98838.31;4970379;28;114016;-95
2022/05/05 03:49:16;;;;;;;5.60;5.10;;;15.30;88.60;;;15.87;56.17;98837.50;5000334;28;124205;-95
2022/05/05 03:51:43;;;;;;;4.63;4.10;;;15.20;88.60;;;15.88;56.51;98841.94;4973210;28;123881;-95
2022/05/05 03:54:09;;;;;;;5.27;4.20;;;15.20;88.70;;;15.88;56.19;98845.53;4972004;28;114267;-95
2022/05/05 03:56:36;;;;;;;5.37;4.87;;;15.20;89.40;;;15.88;56.03;98853.91;4969922;28;113771;-93
2022/05/05 03:59:02;;;;;;;4.90;4.40;;;15.30;88.90;;;15.88;56.08;98850.31;4991724;28;123978;-95
2022/05/05 04:01:30;;;;;;;4.40;4.00;;;15.20;88.80;;;15.87;56.36;98848.66;4968397;28;122839;-95
2022/05/05 04:03:56;;;;;;;4.23;3.83;;;15.30;88.90;;;15.87;56.07;98838.31;4968899;28;114282;-95
2022/05/05 04:06:23;;;;;;;10.07;4.13;;;15.20;88.80;;;15.86;56.35;98847.03;4969936;28;113982;-95
2022/05/05 04:08:51;;;;;;;7.07;5.20;;;15.20;88.80;;;15.82;56.33;98846.91;4991537;28;123952;-93
2022/05/05 04:11:17;;;;;;;5.60;5.10;;;15.20;88.90;;;15.77;56.15;98852.72;4969211;28;123896;-94
2022/05/05 04:13:44;;;;;;;8.30;5.90;;;15.10;88.80;;;15.71;56.49;98848.50;4984524;28;115317;-94
2022/05/05 04:16:11;;;;;;;7.87;6.40;;;15.10;88.90;;;15.63;56.50;98850.19;4971802;28;114558;-93
2022/05/05 04:18:38;;;;;;;8.30;7.50;;;15.10;89.10;;;15.57;56.62;98862.72;4948703;28;123345;-94
2022/05/05 04:21:05;;;;;;;8.33;6.67;;;15.00;89.30;;;15.55;56.76;98864.22;4955223;28;124183;-95
2022/05/05 04:23:32;;;;;;;8.30;6.77;;;15.00;89.40;;;15.54;56.88;98873.75;4959034;28;114597;-93
2022/05/05 04:25:59;;;;;;;7.50;6.17;;;14.90;89.40;;;15.53;56.92;98872.09;4954613;28;113530;-91
2022/05/05 04:28:27;;;;;;;6.43;5.80;;;14.90;89.50;;;15.51;57.06;98871.66;4969406;28;124021;-94
2022/05/05 04:30:54;;;;;;;11.93;6.30;;;14.90;89.60;;;15.54;56.99;98874.56;4970465;28;123998;-94
2022/05/05 04:33:20;;;;;;;9.10;6.80;;;14.90;90.10;;;15.56;56.98;98877.00;4972527;28;114289;-96
2022/05/05 04:35:47;;;;;;;14.33;7.50;;;14.90;89.70;;;15.52;56.97;98876.06;4969229;28;113273;-93
2022/05/05 04:38:14;;;;;;;10.27;7.77;;;14.90;89.80;;;15.46;57.22;98884.63;4982079;28;122966;-92
2022/05/05 04:40:41;;;;;;;8.90;7.17;;;14.90;89.80;;;15.42;57.23;98882.88;4969613;28;123802;-96
2022/05/05 04:43:07;;;;;;;9.10;7.93;;;14.90;89.90;;;15.38;57.44;98882.75;4969459;28;113593;-95
2022/05/05 04:45:34;;;;;;;11.17;8.87;;;14.90;90.00;;;15.36;57.42;98887.03;4988342;28;114552;-96
2022/05/05 04:48:02;;;;;;;10.43;8.23;;;14.80;90.00;;;15.32;57.63;98889.69;4955074;28;123897;-95
2022/05/05 04:50:28;;;;;;;9.27;6.90;;;14.80;90.10;;;15.32;57.67;98881.34;4971112;28;123598;-94
2022/05/05 04:53:13;;;;;;;9.27;6.97;;;14.80;90.10;;;15.34;57.54;98881.81;4971239;28;114270;-95
2022/05/05 04:55:40;;;;;;;8.40;7.00;;;14.80;90.20;;;15.35;57.76;98883.44;4970315;28;112986;-94
2022/05/05 04:58:07;;;;;;;10.60;6.53;;;14.80;90.20;;;15.37;57.67;98885.88;4970416;28;123962;-94
2022/05/05 05:00:33;;;;;;;12.27;7.60;;;14.80;90.20;;;15.35;57.79;98897.34;4968608;28;122996;-94
2022/05/05 05:03:00;;;;;;;12.40;10.30;;;14.80;90.30;;;15.30;57.97;98885.63;4967231;28;115369;-95
2022/05/05 05:05:26;;;;;;;12.40;9.40;;;14.70;90.40;;;15.21;58.30;98888.50;4958269;28;115098;-93
2022/05/05 05:07:53;;;;;;;12.80;8.70;;;14.60;90.40;;;15.18;58.28;98894.75;4953732;28;123298;-95
2022/05/05 05:10:19;;;;;;;11.87;9.17;;;14.60;90.50;;;15.13;58.47;98887.41;4953938;28;123562;-94
2022/05/05 05:12:47;;;;;;;11.40;9.03;;;14.60;90.60;;;15.10;58.39;98890.03;4949813;28;114439;-94
2022/05/05 05:15:13;;;;;;;12.77;8.83;;;14.60;90.60;;;15.06;58.41;98894.66;4956100;28;114265;-94
2022/05/05 05:17:40;;;;;;;14.60;8.40;;;14.50;90.60;;;15.02;58.62;98889.78;4953999;28;124059;-95
2022/05/05 05:20:07;;;;;;;8.60;7.70;;;14.50;90.60;;;15.05;58.52;98890.25;4990675;28;123999;-93
2022/05/05 05:22:35;;;;;;;9.97;7.23;;;14.50;90.60;;;15.07;58.46;98893.50;4954229;28;114328;-94
2022/05/05 05:25:02;;;;;;;9.40;8.10;;;14.50;90.70;;;15.09;58.64;98897.56;4961747;28;113205;-93
2022/05/05 05:27:28;;;;;;;8.07;7.10;;;14.50;90.70;;;15.12;58.39;98910.00;4956877;28;124288;-94
2022/05/05 05:29:54;;;;;;;9.47;7.57;;;14.50;90.70;;;15.16;58.61;98913.75;4960188;28;125025;-94
2022/05/05 05:32:21;;;;;;;7.73;6.87;;;14.50;90.80;;;15.19;58.40;98913.88;4958920;28;114163;-95
2022/05/05 05:34:48;;;;;;;8.30;7.37;;;14.60;90.80;;;15.23;58.32;98912.03;4963639;28;114683;-95
2022/05/05 05:37:14;;;;;;;6.40;5.70;;;14.60;90.80;;;15.31;58.24;98909.50;4959528;28;124777;-95
2022/05/05 05:39:40;;;;;;;8.00;5.50;;;14.70;90.90;;;15.37;58.26;98911.75;4974998;28;123504;-95
2022/05/05 05:42:08;;;;;;;8.13;5.93;;;14.70;90.90;;;15.44;58.33;98914.78;4959995;28;114612;-94
2022/05/05 05:44:34;;;;;;;8.73;6.27;;;14.70;90.90;;;15.50;58.19;98909.84;4960166;28;113278;-95
2022/05/05 05:47:02;;;;;;;6.13;5.60;;;14.80;90.90;;;15.55;58.09;98914.34;4955011;28;123252;-96
2022/05/05 05:49:28;;;;;;;7.20;6.50;;;14.80;90.80;;;15.57;57.86;98914.84;4958602;28;122493;-93
2022/05/05 05:51:55;;;;;;;5.83;5.33;;;14.90;90.80;;;15.60;58.06;98905.78;4959229;28;113253;-95
2022/05/05 05:54:22;;;;;;;9.50;5.77;;;14.90;90.80;;;15.63;57.68;98911.47;4963493;28;115387;-92
2022/05/05 05:56:49;;;;;;;6.10;5.40;;;15.00;90.80;;;15.66;57.77;98909.97;4962582;28;125203;-94
2022/05/05 05:59:16;;;;;;;6.20;5.60;;;15.00;90.80;;;15.72;57.69;98913.41;4957704;28;123029;-93
2022/05/05 06:04:29;;;;;;;5.90;5.23;;;15.00;90.70;;;15.75;57.50;98913.53;4965214;28;113917;-95
2022/05/05 06:06:55;;;;;;;5.73;5.20;;;15.20;90.80;;;15.78;57.36;98918.41;4959812;28;122845;-91
2022/05/05 06:09:22;;;;;;;5.63;5.13;;;15.10;90.70;;;15.80;57.56;98927.25;4956007;28;124464;-91
2022/05/05 06:11:49;;;;;;;8.10;5.23;;;15.10;90.60;;;15.82;57.33;98924.91;4959504;28;114690;-94
2022/05/05 06:14:15;;;;;;;5.80;5.30;;;15.10;90.60;;;15.83;57.21;98929.34;4963771;28;114093;-93
2022/05/05 06:16:42;;;;;;;9.20;6.23;;;15.20;90.60;;;15.83;57.34;98936.91;4964228;28;124498;-93
2022/05/05 06:19:09;;;;;;;6.80;6.10;;;15.20;90.60;;;15.81;57.45;98937.22;4968959;28;124555;-92
2022/05/05 06:21:35;;;;;;;6.23;5.50;;;15.20;90.60;;;15.83;57.50;98940.50;4968625;28;114371;-93
2022/05/05 06:24:03;;;;;;;8.10;6.40;;;15.20;90.60;;;15.84;57.40;98938.50;4963377;28;113179;-91
2022/05/05 06:26:30;;;;;;;6.63;5.93;;;15.20;90.60;;;15.85;57.51;98949.31;4961260;28;124450;-91
2022/05/05 06:28:56;;;;;;;6.03;5.43;;;15.20;90.60;;;15.88;57.34;98945.03;4966822;28;123810;-90
2022/05/05 06:31:23;;;;;;;8.10;6.97;;;15.30;90.60;;;15.90;57.19;98954.69;4966508;28;114168;-92
2022/05/05 06:33:49;;;;;;;8.37;6.30;;;15.20;90.50;;;15.89;57.20;98952.22;4965479;28;114115;-92
2022/05/05 06:36:17;;;;;;;8.10;6.93;;;15.20;90.50;;;15.90;57.25;98949.09;4966404;28;123840;-92
2022/05/05 06:38:43;;;;;;;8.37;7.47;;;15.20;90.50;;;15.94;57.31;98959.56;4978336;28;123950;-92
2022/05/05 06:41:10;;;;;;;6.47;5.67;;;15.30;90.50;;;15.96;57.13;98954.44;4983537;28;114677;-90
2022/05/05 06:43:36;;;;;;;7.80;7.00;;;15.30;90.50;;;15.99;57.33;98960.16;4963643;28;114312;-91
2022/05/05 06:46:03;;;;;;;7.10;5.83;;;15.30;90.50;;;16.02;57.21;98956.66;4963811;28;124004;-91
2022/05/05 06:48:31;;;;;;;6.13;5.53;;;15.40;90.60;;;16.06;57.19;98963.16;4965454;28;124159;-90
2022/05/05 06:50:57;;;;;;;5.77;5.20;;;15.40;90.60;;;16.10;56.92;98960.53;4964060;28;114686;-91
2022/05/05 06:53:24;;;;;;;5.53;5.03;;;15.40;90.50;;;16.14;57.02;98972.59;4964732;28;113180;-93
2022/05/05 06:55:50;;;;;;;5.33;4.83;;;15.40;90.50;;;16.15;56.93;98965.03;4963926;28;123538;-94
2022/05/05 06:58:20;;;;;;;4.50;4.10;;;15.50;90.40;;;16.15;56.78;98971.47;4972157;28;122836;-94
2022/05/05 07:03:32;;;;;;;6.20;4.70;;;15.50;90.30;;;16.16;56.56;98983.41;4997906;28;114065;-92
2022/05/05 07:05:59;;;;;;;4.63;4.23;;;15.50;90.20;;;16.18;56.65;98981.91;4983497;28;123118;-91
2022/05/05 07:10:52;;;;;;;5.00;4.50;;;15.50;90.20;;;16.19;56.53;98983.53;4976503;28;123720;-91
2022/05/05 07:11:15;;;;;;;4.23;3.83;;;15.60;90.20;;;16.19;56.41;98983.53;4971866;28;112954;-89
2022/05/05 07:13:42;;;;;;;5.90;4.70;;;15.50;90.10;;;16.20;56.34;98990.75;4973562;28;114237;-93
2022/05/05 07:16:08;;;;;;;4.40;4.00;;;15.60;90.20;;;16.20;56.50;98987.13;4969229;28;124112;-93
2022/05/05 07:18:35;;;;;;;4.93;4.43;;;15.60;90.10;;;16.21;56.24;98997.13;4963190;28;122989;-91
2022/05/05 07:21:01;;;;;;;4.40;4.00;;;15.60;90.10;;;16.20;56.44;98990.75;4986415;28;113680;-92
2022/05/05 07:23:28;;;;;;;4.20;3.80;;;15.60;90.00;;;16.22;56.39;98993.19;4975204;28;111308;-92
2022/05/05 07:25:55;;;;;;;4.63;4.23;;;15.60;90.00;;;16.24;56.60;98993.66;4990829;28;123881;-94
2022/05/05 07:28:21;;;;;;;4.27;3.90;;;15.60;90.00;;;16.27;56.55;98988.19;4984766;28;124205;-91
2022/05/05 07:30:48;;;;;;;4.63;4.23;;;15.60;90.00;;;16.27;56.47;98996.56;4987483;28;114561;-92
2022/05/05 07:33:15;;;;;;;4.33;3.60;;;15.60;90.00;;;16.30;56.42;98995.84;4973018;28;113929;-94
2022/05/05 07:35:44;;;;;;;3.83;3.53;;;15.70;90.10;;;16.33;56.05;98997.16;4991626;28;124488;-93
2022/05/05 07:38:11;;;;;;;3.80;3.40;;;15.70;90.10;;;16.37;56.54;98991.72;4973156;28;123795;-92
2022/05/05 07:40:38;;;;;;;4.47;4.07;;;15.70;90.10;;;16.39;56.11;98990.19;4972307;28;114473;-93
2022/05/05 07:43:04;;;;;;;4.50;3.77;;;15.70;90.10;;;16.42;56.43;98994.28;4980488;28;113524;-92
2022/05/05 07:45:30;;;;;;;5.30;3.93;;;15.70;90.10;;;16.43;56.18;98999.50;4972280;28;123981;-92
2022/05/05 07:51:58;;;;;;;4.57;4.07;;;15.80;90.10;;;16.42;56.22;98997.88;4959159;28;114886;-91
2022/05/05 07:55:10;;;;;;;5.13;3.80;;;15.80;90.10;;;16.42;56.29;99003.44;4985677;28;114531;-92
2022/05/05 07:57:47;;;;;;;5.93;5.30;;;15.80;90.10;;;16.42;56.29;99003.44;5015480;28;124085;-94
2022/05/05 08:00:15;;;;;;;7.73;6.23;;;15.80;90.10;;;16.39;56.55;98998.56;5001433;28;123398;-92
2022/05/05 08:02:43;;;;;;;5.57;5.03;;;15.80;90.10;;;16.38;56.75;99001.69;4982995;28;114694;-92
2022/05/05 08:05:12;;;;;;;5.60;5.10;;;15.80;90.10;;;16.38;56.38;99001.69;4975798;28;113148;-91
2022/05/05 08:07:45;;;;;;;5.50;4.93;;;15.80;90.10;;;16.38;56.51;99010.06;4985258;28;124115;-93
2022/05/05 08:10:12;;;;;;;6.97;5.57;;;15.80;90.10;;;16.38;56.50;99010.88;4962920;28;123783;-91
2022/05/05 08:12:38;;;;;;;6.13;5.10;;;15.80;90.10;;;16.39;56.45;99012.50;4952055;28;114209;-94
2022/05/05 08:15:07;;;;;;;6.77;5.43;;;15.80;90.20;;;16.39;56.54;99018.09;4968972;28;114130;-92
2022/05/05 08:17:34;;;;;;;5.63;5.13;;;15.80;90.20;;;16.41;56.64;99012.97;4955065;28;123686;-92
2022/05/05 08:20:03;;;;;;;5.30;4.80;;;15.80;90.10;;;16.43;56.50;99021.00;4970275;28;123920;-92
2022/05/05 08:22:30;;;;;;;4.80;4.40;;;15.80;90.10;;;16.44;56.50;99012.28;4996631;28;114844;-94
2022/05/05 08:30:27;;;;;;;5.20;4.70;;;15.90;90.10;;;16.51;56.40;99023.66;4970527;28;125040;-92
2022/05/05 08:32:54;;;;;;;7.57;5.40;;;15.90;90.10;;;16.57;56.46;99027.84;4962134;28;113507;-91
2022/05/05 08:35:22;;;;;;;7.10;5.90;;;15.90;90.10;;;16.61;56.26;99035.56;4953013;28;114048;-89
2022/05/05 08:37:52;;;;;;;5.73;4.80;;;16.00;90.10;;;16.64;56.16;99030.09;4952034;28;124394;-90
2022/05/05 08:40:26;;;;;;;7.37;5.77;;;16.00;90.10;;;16.69;56.08;99035.44;4968070;28;126480;-93
2022/05/05 08:42:54;;;;;;;8.53;6.60;;;16.00;90.10;;;16.72;55.91;99028.34;4955550;28;113584;-92
2022/05/05 08:45:21;;;;;;;6.83;5.60;;;16.10;90.10;;;16.72;56.02;99031.13;4960988;28;113698;-91
2022/05/05 08:47:48;;;;;;;9.37;8.00;;;16.10;90.00;;;16.70;55.96;99036.25;4961536;28;124086;-92
2022/05/05 08:50:16;;;;;;;6.40;5.80;;;16.10;90.00;;;16.66;56.02;99041.72;4958164;28;124514;-92
2022/05/05 08:52:50;;;;;;;8.10;6.97;;;16.10;89.90;;;16.67;56.04;99037.75;4970583;28;114694;-94
2022/05/05 08:55:19;;;;;;;6.20;5.60;;;16.10;90.00;;;16.69;56.26;99049.38;4970827;28;113420;-92
2022/05/05 08:57:46;;;;;;;7.03;5.77;;;16.10;90.00;;;16.71;55.90;99049.03;4958836;28;123877;-92
2022/05/05 09:00:16;;;;;;;6.63;5.80;;;16.10;90.00;;;16.75;56.22;99045.19;4974894;28;122680;-89
2022/05/05 09:02:43;;;;;;;5.93;5.43;;;16.20;90.00;;;16.81;56.07;99056.97;4963554;28;114112;-94
2022/05/05 09:05:11;;;;;;;8.30;5.47;;;16.20;90.00;;;16.83;56.03;99053.84;4965178;28;113823;-89
2022/05/05 09:07:51;;;;;;;6.23;5.63;;;16.40;90.00;;;16.86;56.02;99050.34;4962818;28;124532;-90
2022/05/05 09:10:20;;;;;;;7.20;6.50;;;16.30;90.00;;;16.88;56.32;99042.47;4959310;28;123874;-90
2022/05/05 09:13:30;;;;;;;7.90;6.70;;;16.30;90.00;;;16.84;55.94;99050.69;4957604;28;115318;-91
2022/05/05 09:15:57;;;;;;;7.03;6.13;;;16.30;90.00;;;16.86;55.95;99051.16;4961986;28;115211;-91
2022/05/05 09:18:30;;;;;;;6.90;5.93;;;16.30;90.00;;;16.88;55.87;99048.84;4960266;28;124324;-92
2022/05/05 09:21:03;;;;;;;7.23;5.90;;;16.30;90.00;;;16.90;56.07;99054.91;4970039;28;123841;-93
2022/05/05 09:24:34;;;;;;;12.80;10.60;;;16.30;90.00;;;16.89;56.33;99056.06;4969996;28;114365;-90
2022/05/05 09:26:30;;;;;;;8.87;7.97;;;16.40;90.10;;;16.86;56.28;99061.53;4969464;28;113901;-91
2022/05/05 09:28:57;;;;;;;7.80;7.00;;;16.30;90.00;;;16.88;56.09;99062.81;4958160;28;124162;-89
2022/05/05 09:31:24;;;;;;;8.57;7.70;;;16.30;90.00;;;16.93;55.87;99058.97;4959870;28;124303;-91
2022/05/05 09:33:51;;;;;;;8.20;7.07;;;16.30;90.00;;;16.93;55.72;99070.16;4962008;28;113807;-93
2022/05/05 09:36:27;;;;;;;6.97;6.30;;;16.40;90.00;;;16.94;55.82;99058.63;4959249;28;113977;-90
2022/05/05 09:39:04;;;;;;;9.40;8.40;;;16.40;89.90;;;16.94;55.70;99066.19;4987626;28;124803;-91
2022/05/05 09:41:33;;;;;;;8.70;7.80;;;16.40;89.80;;;16.94;55.91;99063.38;4979229;28;123864;-90
2022/05/05 09:44:21;;;;;;;7.17;6.47;;;16.40;89.80;;;16.96;55.68;99061.88;4994163;28;114045;-88
2022/05/05 09:46:50;;;;;;;12.30;8.33;;;16.40;89.80;;;16.99;55.73;99063.16;4953930;28;113988;-92
2022/05/05 09:49:19;;;;;;;7.13;6.43;;;16.40;89.70;;;17.03;55.54;99066.88;4947138;28;124930;-91
2022/05/05 09:57:39;;;;;;;6.50;5.90;;;16.50;89.90;;;17.08;55.27;99066.63;4993462;28;121725;-91
2022/05/05 09:57:41;;;;;;;8.87;7.97;;;16.50;89.60;;;17.13;55.62;99063.63;4970899;28;115276;-89
2022/05/05 10:00:52;;;;;;;8.90;8.00;;;16.50;89.50;;;17.13;55.06;99065.59;4946113;28;124036;-89
2022/05/05 10:05:57;;;;;;;8.83;7.40;;;16.50;89.40;;;17.16;55.13;99074.06;4993497;28;116001;-87
2022/05/05 10:08:39;;;;;;;8.27;7.37;;;16.60;89.40;;;17.20;55.18;99074.22;4993570;28;113939;-91
2022/05/05 10:11:09;;;;;;;7.03;6.33;;;16.60;89.30;;;17.23;55.08;99071.53;4963827;28;124097;-92
2022/05/05 10:13:39;;;;;;;6.50;5.90;;;16.60;89.20;;;17.29;55.15;99068.50;4970160;28;125408;-90
2022/05/05 10:16:08;;;;;;;6.03;5.53;;;16.70;89.20;;;17.35;55.05;99072.66;4970061;28;113612;-89
2022/05/05 10:18:38;;;;;;;8.27;7.10;;;16.70;89.20;;;17.40;55.03;99073.25;4977760;28;113589;-90
2022/05/05 10:21:21;;;;;;;6.50;5.90;;;16.80;89.20;;;17.44;54.72;99073.38;4974890;28;124466;-91
2022/05/05 10:24:15;;;;;;;7.00;6.20;;;16.80;89.10;;;17.49;54.77;99070.34;4973543;28;121986;-93
2022/05/05 10:26:44;;;;;;;10.20;7.97;;;16.90;89.00;;;17.50;54.17;99069.16;4967185;28;113591;-91
2022/05/05 10:29:56;;;;;;;7.30;6.60;;;16.90;88.70;;;17.49;54.56;99067.53;4985771;28;113953;-92
2022/05/05 10:32:28;;;;;;;6.97;6.27;;;16.90;88.40;;;17.55;54.70;99065.31;4951558;28;123834;-90
2022/05/05 10:35:13;;;;;;;10.43;7.80;;;16.90;88.50;;;17.59;54.49;99061.44;4951641;28;123905;-90
2022/05/05 10:37:40;;;;;;;8.73;7.70;;;17.00;88.50;;;17.62;54.32;99059.94;5005756;28;113145;-89
2022/05/05 10:40:11;;;;;;;8.40;7.60;;;17.00;88.60;;;17.67;54.13;99063.28;4967996;28;114298;-89
2022/05/05 10:42:45;;;;;;;8.80;7.47;;;17.00;88.50;;;17.69;54.01;99059.34;4990310;28;124661;-91
2022/05/05 10:45:29;;;;;;;8.60;7.47;;;17.10;88.30;;;17.71;54.00;99054.22;4973500;28;124262;-92
2022/05/05 10:47:58;;;;;;;6.47;5.87;;;17.10;88.10;;;17.73;53.97;99057.47;4990315;28;113391;-90
2022/05/05 10:50:54;;;;;;;7.10;6.07;;;17.10;88.00;;;17.76;53.89;99062.34;4984963;28;112081;-90
2022/05/05 10:53:42;;;;;;;8.60;6.50;;;17.10;87.90;;;17.75;53.90;99057.91;4955835;28;124518;-91
2022/05/05 10:56:20;;;;;;;9.03;8.23;;;17.20;87.80;;;17.78;53.79;99065.59;4965408;28;122763;-90